createdAt,value
2022-08-29T00:01:24.676Z,98025.00
2022-08-29T00:03:55.799Z,98005.00
2022-08-29T00:06:22.852Z,98008.00
2022-08-29T00:08:50.008Z,98013.00
2022-08-29T00:11:17.644Z,98009.00
2022-08-29T00:13:44.569Z,98011.00
2022-08-29T00:16:11.611Z,97997.00
2022-08-29T00:18:39.076Z,98009.00
2022-08-29T00:21:06.652Z,98002.00
2022-08-29T00:23:34.069Z,97997.00
2022-08-29T00:26:00.923Z,98001.00
2022-08-29T00:28:27.813Z,98004.00
2022-08-29T00:30:54.793Z,98003.00
2022-08-29T00:33:21.662Z,98009.00
2022-08-29T00:35:48.767Z,98027.00
2022-08-29T00:38:18.267Z,98026.00
2022-08-29T00:40:54.017Z,98026.00
2022-08-29T00:43:31.348Z,98011.00
2022-08-29T00:46:40.941Z,98015.00
2022-08-29T00:49:22.009Z,98023.00
2022-08-29T00:51:49.296Z,98011.00
2022-08-29T00:54:16.657Z,98021.00
2022-08-29T00:56:46.581Z,98012.00
2022-08-29T00:59:27.760Z,98026.00
2022-08-29T01:01:55.625Z,98035.00
2022-08-29T01:04:23.782Z,98023.00
2022-08-29T01:06:53.900Z,98029.00
2022-08-29T01:09:23.450Z,98022.00
2022-08-29T01:12:09.676Z,98009.00
2022-08-29T01:14:38.691Z,98032.00
2022-08-29T01:17:09.990Z,98031.00
2022-08-29T01:19:47.125Z,98034.00
2022-08-29T01:22:41.981Z,98023.00
2022-08-29T01:25:16.125Z,98040.00
2022-08-29T01:27:50.983Z,98034.00
2022-08-29T01:30:19.041Z,98034.00
2022-08-29T01:32:46.126Z,98018.00
2022-08-29T01:35:13.140Z,98032.00
2022-08-29T01:37:43.435Z,98042.00
2022-08-29T01:40:12.387Z,98030.00
2022-08-29T01:42:41.876Z,98039.00
2022-08-29T01:45:10.489Z,98042.00
2022-08-29T01:47:38.931Z,98022.00
2022-08-29T01:50:14.597Z,98029.00
2022-08-29T01:52:43.646Z,98042.00
2022-08-29T01:55:11.069Z,98047.00
2022-08-29T01:57:39.780Z,98050.00
2022-08-29T02:00:10.247Z,98051.00
2022-08-29T02:02:43.307Z,98034.00
2022-08-29T02:05:11.037Z,98037.00
2022-08-29T02:07:39.323Z,98033.00
2022-08-29T02:10:07.366Z,98044.00
2022-08-29T02:12:36.006Z,98031.00
2022-08-29T02:15:04.656Z,98031.00
2022-08-29T02:17:31.538Z,98041.00
2022-08-29T02:19:58.720Z,98044.00
2022-08-29T02:22:25.805Z,98041.00
2022-08-29T02:24:52.836Z,98045.00
2022-08-29T02:27:19.750Z,98028.00
2022-08-29T02:29:46.691Z,98040.00
2022-08-29T02:32:16.748Z,98033.00
2022-08-29T02:34:47.764Z,98033.00
2022-08-29T02:37:16.736Z,98030.00
2022-08-29T02:39:43.622Z,98052.00
2022-08-29T02:42:10.667Z,98048.00
2022-08-29T02:44:38.275Z,98037.00
2022-08-29T02:47:05.648Z,98047.00
2022-08-29T02:49:32.595Z,98038.00
2022-08-29T02:51:59.591Z,98042.00
2022-08-29T02:54:26.477Z,98031.00
2022-08-29T02:56:53.465Z,98055.00
2022-08-29T02:59:20.342Z,98046.00
2022-08-29T03:01:47.256Z,98044.00
2022-08-29T03:04:14.125Z,98037.00
2022-08-29T03:06:41.157Z,98048.00
2022-08-29T03:09:08.055Z,98049.00
2022-08-29T03:11:35.074Z,98029.00
2022-08-29T03:14:02.214Z,98033.00
2022-08-29T03:16:29.731Z,98030.00
2022-08-29T03:18:56.813Z,98028.00
2022-08-29T03:21:27.214Z,98021.00
2022-08-29T03:23:59.412Z,98035.00
2022-08-29T03:26:26.436Z,98030.00
2022-08-29T03:28:53.921Z,98012.00
2022-08-29T03:31:21.673Z,98045.00
2022-08-29T03:33:48.776Z,98033.00
2022-08-29T03:36:15.957Z,98041.00
2022-08-29T03:38:46.230Z,98048.00
2022-08-29T03:41:24.405Z,98046.00
2022-08-29T03:43:51.702Z,98044.00
2022-08-29T03:46:18.959Z,98046.00
2022-08-29T03:48:45.958Z,98036.00
2022-08-29T03:51:12.815Z,98049.00
2022-08-29T03:53:42.506Z,98027.00
2022-08-29T03:56:10.854Z,98043.00
2022-08-29T03:58:50.393Z,98042.00
2022-08-29T04:01:22.486Z,98018.00
2022-08-29T04:03:50.488Z,98018.00
2022-08-29T04:06:17.387Z,98036.00
2022-08-29T04:08:47.425Z,98022.00
2022-08-29T04:11:16.668Z,98011.00
2022-08-29T04:13:43.660Z,98015.00
2022-08-29T04:16:18.199Z,98024.00
2022-08-29T04:18:45.502Z,98013.00
2022-08-29T04:21:13.060Z,98024.00
2022-08-29T04:23:40.969Z,98030.00
2022-08-29T04:29:08.580Z,98039.00
2022-08-29T04:31:37.253Z,98043.00
2022-08-29T04:34:09.865Z,98043.00
2022-08-29T04:36:41.456Z,98036.00
2022-08-29T04:39:10.068Z,98039.00
2022-08-29T04:41:38.867Z,98051.00
2022-08-29T04:44:08.240Z,98039.00
2022-08-29T04:46:35.723Z,98050.00
2022-08-29T04:49:04.439Z,98040.00
2022-08-29T04:51:34.469Z,98047.00
2022-08-29T04:54:02.859Z,98037.00
2022-08-29T04:56:30.194Z,98050.00
2022-08-29T04:58:57.108Z,98049.00
2022-08-29T05:01:27.096Z,98052.00
2022-08-29T05:03:55.272Z,98048.00
2022-08-29T05:06:23.719Z,98043.00
2022-08-29T05:08:55.068Z,98042.00
2022-08-29T05:11:29.040Z,98049.00
2022-08-29T05:13:56.904Z,98034.00
2022-08-29T05:16:23.781Z,98053.00
2022-08-29T05:18:50.919Z,98040.00
2022-08-29T05:21:34.058Z,98049.00
2022-08-29T05:24:07.512Z,98057.00
2022-08-29T05:26:40.358Z,98048.00
2022-08-29T05:29:10.315Z,98048.00
2022-08-29T05:31:41.816Z,98048.00
2022-08-29T05:34:32.799Z,98055.00
2022-08-29T05:36:58.268Z,98062.00
2022-08-29T05:39:25.196Z,98044.00
2022-08-29T05:41:55.994Z,98051.00
2022-08-29T05:44:23.067Z,98051.00
2022-08-29T05:46:50.153Z,98071.00
2022-08-29T05:49:17.371Z,98053.00
2022-08-29T05:51:44.445Z,98070.00
2022-08-29T05:54:11.491Z,98055.00
2022-08-29T05:56:41.337Z,98070.00
2022-08-29T05:59:08.381Z,98073.00
2022-08-29T06:01:40.521Z,98057.00
2022-08-29T06:04:07.450Z,98056.00
2022-08-29T06:06:34.534Z,98052.00
2022-08-29T06:09:01.404Z,98054.00
2022-08-29T06:11:32.778Z,98060.00
2022-08-29T06:14:01.973Z,98062.00
2022-08-29T06:16:30.612Z,98056.00
2022-08-29T06:18:58.563Z,98057.00
2022-08-29T06:21:25.947Z,98055.00
2022-08-29T06:23:52.897Z,98076.00
2022-08-29T06:26:20.023Z,98068.00
2022-08-29T06:28:47.632Z,98076.00
2022-08-29T06:31:22.603Z,98071.00
2022-08-29T06:33:54.368Z,98064.00
2022-08-29T06:36:22.339Z,98061.00
2022-08-29T06:38:49.301Z,98074.00
2022-08-29T06:41:17.928Z,98069.00
2022-08-29T06:43:45.534Z,98071.00
2022-08-29T06:46:29.884Z,98073.00
2022-08-29T06:48:59.635Z,98079.00
2022-08-29T06:51:27.986Z,98077.00
2022-08-29T06:53:54.891Z,98083.00
2022-08-29T06:56:21.842Z,98079.00
2022-08-29T06:58:49.203Z,98083.00
2022-08-29T07:01:20.250Z,98079.00
2022-08-29T07:03:47.645Z,98074.00
2022-08-29T07:06:17.418Z,98093.00
2022-08-29T07:08:55.078Z,98089.00
2022-08-29T07:11:24.055Z,98079.00
2022-08-29T07:13:50.960Z,98069.00
2022-08-29T07:16:18.910Z,98082.00
2022-08-29T07:18:47.406Z,98081.00
2022-08-29T07:21:20.885Z,98091.00
2022-08-29T07:23:50.055Z,98090.00
2022-08-29T07:26:22.632Z,98085.00
2022-08-29T07:28:53.023Z,98076.00
2022-08-29T07:31:20.778Z,98074.00
2022-08-29T07:33:48.264Z,98078.00
2022-08-29T07:36:21.554Z,98080.00
2022-08-29T07:38:48.455Z,98082.00
2022-08-29T07:41:15.459Z,98091.00
2022-08-29T07:43:43.699Z,98087.00
2022-08-29T07:46:15.739Z,98087.00
2022-08-29T07:48:43.902Z,98095.00
2022-08-29T07:51:23.235Z,98072.00
2022-08-29T07:53:51.595Z,98078.00
2022-08-29T07:56:38.247Z,98088.00
2022-08-29T07:59:06.771Z,98098.00
2022-08-29T08:01:35.553Z,98093.00
2022-08-29T08:04:02.930Z,98090.00
2022-08-29T08:06:34.495Z,98101.00
2022-08-29T08:09:05.305Z,98104.00
2022-08-29T08:11:32.356Z,98102.00
2022-08-29T08:13:59.463Z,98091.00
2022-08-29T08:16:28.436Z,98095.00
2022-08-29T08:18:56.303Z,98091.00
2022-08-29T08:21:24.583Z,98084.00
2022-08-29T08:23:52.617Z,98080.00
2022-08-29T08:26:20.755Z,98096.00
2022-08-29T08:28:48.753Z,98088.00
2022-08-29T08:31:20.339Z,98106.00
2022-08-29T08:33:48.095Z,98105.00
2022-08-29T08:36:19.348Z,98087.00
2022-08-29T08:38:47.683Z,98086.00
2022-08-29T08:41:45.713Z,98092.00
2022-08-29T08:44:21.817Z,98096.00
2022-08-29T08:46:54.118Z,98094.00
2022-08-29T08:49:40.430Z,98094.00
2022-08-29T08:52:17.832Z,98090.00
2022-08-29T08:54:58.079Z,98087.00
2022-08-29T08:57:35.011Z,98089.00
2022-08-29T09:00:03.997Z,98096.00
2022-08-29T09:02:54.578Z,98114.00
2022-08-29T09:05:49.308Z,98098.00
2022-08-29T09:08:53.964Z,98090.00
2022-08-29T09:11:41.893Z,98082.00
2022-08-29T09:14:36.697Z,98090.00
2022-08-29T09:17:12.443Z,98097.00
2022-08-29T09:19:40.229Z,98100.00
2022-08-29T09:22:23.743Z,98095.00
2022-08-29T09:25:10.903Z,98086.00
2022-08-29T09:27:41.794Z,98093.00
2022-08-29T09:30:20.217Z,98090.00
2022-08-29T09:33:11.535Z,98084.00
2022-08-29T09:35:42.615Z,98085.00
2022-08-29T09:38:18.836Z,98103.00
2022-08-29T09:40:57.397Z,98097.00
2022-08-29T09:43:38.713Z,98104.00
2022-08-29T09:46:11.771Z,98098.00
2022-08-29T09:48:46.534Z,98094.00
2022-08-29T09:51:31.418Z,98092.00
2022-08-29T09:54:31.680Z,98098.00
2022-08-29T09:57:34.000Z,98099.00
2022-08-29T10:00:18.649Z,98093.00
2022-08-29T10:02:49.843Z,98084.00
2022-08-29T10:05:41.624Z,98091.00
2022-08-29T10:08:35.237Z,98086.00
2022-08-29T10:11:08.899Z,98079.00
2022-08-29T10:13:51.308Z,98090.00
2022-08-29T10:16:44.105Z,98087.00
2022-08-29T10:19:20.327Z,98095.00
2022-08-29T10:22:02.569Z,98088.00
2022-08-29T10:24:54.983Z,98085.00
2022-08-29T10:27:41.858Z,98092.00
2022-08-29T10:30:27.535Z,98093.00
2022-08-29T10:33:41.725Z,98087.00
2022-08-29T10:36:19.604Z,98078.00
2022-08-29T10:38:55.373Z,98082.00
2022-08-29T10:41:51.811Z,98082.00
2022-08-29T10:44:52.055Z,98083.00
2022-08-29T10:47:53.131Z,98087.00
2022-08-29T10:50:45.512Z,98081.00
2022-08-29T10:53:31.463Z,98075.00
2022-08-29T10:56:31.285Z,98072.00
2022-08-29T10:59:34.391Z,98066.00
2022-08-29T11:02:12.817Z,98065.00
2022-08-29T11:04:51.010Z,98071.00
2022-08-29T11:07:48.913Z,98069.00
2022-08-29T11:10:21.152Z,98066.00
2022-08-29T11:12:56.874Z,98071.00
2022-08-29T11:15:43.867Z,98061.00
2022-08-29T11:18:40.265Z,98050.00
2022-08-29T11:21:55.520Z,98035.00
2022-08-29T11:24:34.382Z,98046.00
2022-08-29T11:27:18.626Z,98044.00
2022-08-29T11:29:51.564Z,98024.00
2022-08-29T11:32:26.341Z,98031.00
2022-08-29T11:35:09.972Z,98025.00
2022-08-29T11:38:37.910Z,98012.00
2022-08-29T11:41:35.344Z,98012.00
2022-08-29T11:44:26.299Z,98016.00
2022-08-29T11:46:56.762Z,98014.00
2022-08-29T11:49:51.881Z,98033.00
2022-08-29T11:52:26.336Z,98023.00
2022-08-29T11:55:31.983Z,98018.00
2022-08-29T11:58:28.090Z,98015.00
2022-08-29T12:00:58.340Z,98015.00
2022-08-29T12:03:35.365Z,98000.00
2022-08-29T12:06:11.782Z,98002.00
2022-08-29T12:09:02.847Z,98011.00
2022-08-29T12:12:02.588Z,98010.00
2022-08-29T12:14:52.794Z,98001.00
2022-08-29T12:17:23.343Z,98008.00
2022-08-29T12:19:56.154Z,98000.00
2022-08-29T12:23:15.742Z,97988.00
2022-08-29T12:29:10.391Z,97988.00
2022-08-29T12:32:40.554Z,97991.00
2022-08-29T12:35:26.996Z,97997.00
2022-08-29T12:38:22.813Z,97982.00
2022-08-29T12:41:15.513Z,97978.00
2022-08-29T12:43:46.730Z,97978.00
2022-08-29T12:46:41.456Z,97982.00
2022-08-29T12:49:30.640Z,97973.00
2022-08-29T12:52:18.219Z,97981.00
2022-08-29T12:54:46.001Z,97974.00
2022-08-29T12:57:23.100Z,97965.00
2022-08-29T12:59:53.935Z,97972.00
2022-08-29T13:02:32.548Z,97969.00
2022-08-29T13:05:00.937Z,97972.00
2022-08-29T13:07:29.850Z,97963.00
2022-08-29T13:10:01.008Z,97964.00
2022-08-29T13:12:32.428Z,97968.00
2022-08-29T13:15:04.641Z,97977.00
2022-08-29T13:17:34.526Z,97966.00
2022-08-29T13:20:42.804Z,97959.00
2022-08-29T13:23:12.641Z,97963.00
2022-08-29T13:26:10.652Z,97964.00
2022-08-29T13:28:46.373Z,97956.00
2022-08-29T13:31:16.335Z,97960.00
2022-08-29T13:33:46.233Z,97967.00
2022-08-29T13:36:50.411Z,97958.00
2022-08-29T13:39:25.447Z,97952.00
2022-08-29T13:42:20.301Z,97952.00
2022-08-29T13:44:51.732Z,97955.00
2022-08-29T13:47:26.496Z,97950.00
2022-08-29T13:50:00.412Z,97947.00
2022-08-29T13:52:31.964Z,97953.00
2022-08-29T13:54:59.905Z,97950.00
2022-08-29T13:57:29.321Z,97955.00
2022-08-29T13:59:58.871Z,97947.00
2022-08-29T14:02:26.187Z,97939.00
2022-08-29T14:04:53.366Z,97953.00
2022-08-29T14:07:31.265Z,97944.00
2022-08-29T14:09:58.950Z,97933.00
2022-08-29T14:12:33.678Z,97938.00
2022-08-29T14:15:08.787Z,97928.00
2022-08-29T14:17:40.599Z,97931.00
2022-08-29T14:20:12.548Z,97926.00
2022-08-29T14:22:40.471Z,97937.00
2022-08-29T14:25:10.846Z,97930.00
2022-08-29T14:27:39.234Z,97921.00
2022-08-29T14:30:10.353Z,97927.00
2022-08-29T14:32:37.971Z,97927.00
2022-08-29T14:35:06.208Z,97928.00
2022-08-29T14:37:34.726Z,97929.00
2022-08-29T14:40:03.960Z,97927.00
2022-08-29T14:42:32.170Z,97928.00
2022-08-29T14:44:59.088Z,97937.00
2022-08-29T14:47:26.041Z,97910.00
2022-08-29T14:49:54.309Z,97934.00
2022-08-29T14:52:21.310Z,97946.00
2022-08-29T14:54:49.012Z,97928.00
2022-08-29T14:57:16.030Z,97930.00
2022-08-29T14:59:42.888Z,97919.00
2022-08-29T15:02:10.377Z,97913.00
2022-08-29T15:04:38.033Z,97922.00
2022-08-29T15:07:12.815Z,97910.00
2022-08-29T15:09:43.981Z,97922.00
2022-08-29T15:12:14.514Z,97926.00
2022-08-29T15:14:41.837Z,97919.00
2022-08-29T15:17:13.385Z,97923.00
2022-08-29T15:22:28.233Z,97928.00
2022-08-29T15:24:55.373Z,97916.00
2022-08-29T15:27:27.451Z,97920.00
2022-08-29T15:29:56.737Z,97923.00
2022-08-29T15:32:23.942Z,97919.00
2022-08-29T15:34:51.280Z,97897.00
2022-08-29T15:37:18.246Z,97900.00
2022-08-29T15:39:45.366Z,97898.00
2022-08-29T15:42:17.169Z,97899.00
2022-08-29T15:44:44.797Z,97902.00
2022-08-29T15:47:12.065Z,97891.00
2022-08-29T15:49:39.450Z,97895.00
2022-08-29T15:52:07.113Z,97890.00
2022-08-29T15:54:35.422Z,97896.00
2022-08-29T15:57:02.385Z,97895.00
2022-08-29T15:59:54.442Z,97890.00
2022-08-29T16:02:17.309Z,97885.00
2022-08-29T16:04:47.500Z,97888.00
2022-08-29T16:07:15.623Z,97891.00
2022-08-29T16:09:42.954Z,97873.00
2022-08-29T16:12:11.316Z,97863.00
2022-08-29T16:14:58.592Z,97878.00
2022-08-29T16:17:29.593Z,97890.00
2022-08-29T16:19:58.095Z,97887.00
2022-08-29T16:22:27.809Z,97882.00
2022-08-29T16:24:55.358Z,97874.00
2022-08-29T16:27:24.043Z,97868.00
2022-08-29T16:29:55.198Z,97866.00
2022-08-29T16:32:22.276Z,97862.00
2022-08-29T16:34:49.555Z,97868.00
2022-08-29T16:37:16.768Z,97859.00
2022-08-29T16:39:43.931Z,97873.00
2022-08-29T16:42:14.086Z,97884.00
2022-08-29T16:44:42.121Z,97888.00
2022-08-29T16:47:09.305Z,97892.00
2022-08-29T16:49:36.272Z,97887.00
2022-08-29T16:52:04.613Z,97888.00
2022-08-29T16:54:32.177Z,97888.00
2022-08-29T16:56:59.128Z,97873.00
2022-08-29T16:59:26.397Z,97878.00
2022-08-29T17:01:54.336Z,97869.00
2022-08-29T17:04:27.932Z,97879.00
2022-08-29T17:06:56.654Z,97889.00
2022-08-29T17:09:25.499Z,97893.00
2022-08-29T17:11:54.234Z,97885.00
2022-08-29T17:14:25.632Z,97882.00
2022-08-29T17:16:55.441Z,97889.00
2022-08-29T17:19:24.431Z,97888.00
2022-08-29T17:21:51.495Z,97883.00
2022-08-29T17:24:19.067Z,97876.00
2022-08-29T17:26:48.778Z,97878.00
2022-08-29T17:29:16.408Z,97873.00
2022-08-29T17:31:43.666Z,97868.00
2022-08-29T17:34:12.091Z,97878.00
2022-08-29T17:36:40.652Z,97893.00
2022-08-29T17:39:09.196Z,97883.00
2022-08-29T17:41:38.539Z,97888.00
2022-08-29T17:44:09.960Z,97880.00
2022-08-29T17:46:37.170Z,97882.00
2022-08-29T17:49:08.062Z,97884.00
2022-08-29T17:51:36.434Z,97892.00
2022-08-29T17:54:12.607Z,97894.00
2022-08-29T17:56:48.441Z,97892.00
2022-08-29T17:59:17.918Z,97898.00
2022-08-29T18:01:46.506Z,97897.00
2022-08-29T18:04:14.180Z,97893.00
2022-08-29T18:06:41.851Z,97896.00
2022-08-29T18:09:09.580Z,97901.00
2022-08-29T18:11:42.681Z,97898.00
2022-08-29T18:14:11.475Z,97906.00
2022-08-29T18:16:42.142Z,97905.00
2022-08-29T18:19:09.217Z,97896.00
2022-08-29T18:21:36.575Z,97904.00
2022-08-29T18:24:04.080Z,97905.00
2022-08-29T18:26:34.407Z,97912.00
2022-08-29T18:29:01.580Z,97908.00
2022-08-29T18:31:29.231Z,97905.00
2022-08-29T18:34:00.513Z,97916.00
2022-08-29T18:36:30.242Z,97906.00
2022-08-29T18:38:58.741Z,97911.00
2022-08-29T18:41:26.695Z,97922.00
2022-08-29T18:43:54.099Z,97903.00
2022-08-29T18:46:21.854Z,97907.00
2022-08-29T18:48:48.869Z,97928.00
2022-08-29T18:51:16.121Z,97915.00
2022-08-29T18:53:43.423Z,97910.00
2022-08-29T18:56:11.608Z,97907.00
2022-08-29T18:58:41.242Z,97895.00
2022-08-29T19:01:27.408Z,97916.00
2022-08-29T19:04:00.461Z,97920.00
2022-08-29T19:06:27.686Z,97915.00
2022-08-29T19:08:56.533Z,97920.00
2022-08-29T19:11:28.325Z,97923.00
2022-08-29T19:13:55.581Z,97924.00
2022-08-29T19:16:23.781Z,97925.00
2022-08-29T19:18:51.800Z,97944.00
2022-08-29T19:21:18.906Z,97948.00
2022-08-29T19:23:52.568Z,97943.00
2022-08-29T19:26:28.186Z,97944.00
2022-08-29T19:28:59.206Z,97937.00
2022-08-29T19:31:27.921Z,97933.00
2022-08-29T19:33:55.435Z,97949.00
2022-08-29T19:36:23.389Z,97930.00
2022-08-29T19:38:50.933Z,97928.00
2022-08-29T19:41:18.362Z,97944.00
2022-08-29T19:43:45.479Z,97956.00
2022-08-29T19:46:21.152Z,97954.00
2022-08-29T19:48:50.838Z,97958.00
2022-08-29T19:51:22.154Z,97954.00
2022-08-29T19:53:57.118Z,97954.00
2022-08-29T19:56:26.484Z,97955.00
2022-08-29T19:58:53.869Z,97952.00
2022-08-29T20:01:20.853Z,97936.00
2022-08-29T20:03:48.022Z,97936.00
2022-08-29T20:06:15.963Z,97945.00
2022-08-29T20:08:46.803Z,97951.00
2022-08-29T20:11:19.315Z,97946.00
2022-08-29T20:13:50.542Z,97951.00
2022-08-29T20:16:23.129Z,97946.00
2022-08-29T20:18:51.771Z,97928.00
2022-08-29T20:21:20.902Z,97936.00
2022-08-29T20:23:57.094Z,97935.00
2022-08-29T20:26:29.954Z,97943.00
2022-08-29T20:28:58.295Z,97941.00
2022-08-29T20:31:25.562Z,97943.00
2022-08-29T20:33:52.646Z,97935.00
2022-08-29T20:36:41.069Z,97942.00
2022-08-29T20:39:12.728Z,97939.00
2022-08-29T20:41:39.999Z,97939.00
2022-08-29T20:44:09.712Z,97945.00
2022-08-29T20:46:41.675Z,97961.00
2022-08-29T20:49:12.190Z,97965.00
2022-08-29T20:51:44.338Z,97968.00
2022-08-29T20:54:19.072Z,97955.00
2022-08-29T20:56:46.551Z,97971.00
2022-08-29T20:59:13.473Z,97963.00
2022-08-29T21:01:41.554Z,97955.00
2022-08-29T21:04:29.409Z,97974.00
2022-08-29T21:07:03.880Z,97969.00
2022-08-29T21:09:31.970Z,97970.00
2022-08-29T21:11:59.551Z,97976.00
2022-08-29T21:14:29.819Z,97974.00
2022-08-29T21:16:57.794Z,97971.00
2022-08-29T21:19:29.727Z,97966.00
2022-08-29T21:21:59.605Z,97969.00
2022-08-29T21:24:27.844Z,97948.00
2022-08-29T21:26:55.024Z,97961.00
2022-08-29T21:29:22.836Z,97975.00
2022-08-29T21:31:53.977Z,97973.00
2022-08-29T21:34:22.444Z,97975.00
2022-08-29T21:36:50.144Z,97972.00
2022-08-29T21:39:28.095Z,97962.00
2022-08-29T21:41:57.194Z,97973.00
2022-08-29T21:44:24.199Z,97966.00
2022-08-29T21:46:51.466Z,97966.00
2022-08-29T21:49:21.397Z,97961.00
2022-08-29T21:51:49.424Z,97951.00
2022-08-29T21:54:18.046Z,97963.00
2022-08-29T21:56:46.540Z,97948.00
2022-08-29T21:59:15.044Z,97958.00
2022-08-29T22:01:45.424Z,97958.00
2022-08-29T22:04:28.690Z,97972.00
2022-08-29T22:06:58.413Z,97947.00
2022-08-29T22:09:27.417Z,97961.00
2022-08-29T22:11:54.468Z,97963.00
2022-08-29T22:14:21.542Z,97960.00
2022-08-29T22:16:48.504Z,97966.00
2022-08-29T22:19:17.427Z,97980.00
2022-08-29T22:21:51.860Z,97974.00
2022-08-29T22:24:19.464Z,97983.00
2022-08-29T22:26:47.196Z,97976.00
2022-08-29T22:29:15.952Z,97983.00
2022-08-29T22:31:44.874Z,97987.00
2022-08-29T22:34:16.983Z,97977.00
2022-08-29T22:36:44.613Z,97986.00
2022-08-29T22:39:12.103Z,97980.00
2022-08-29T22:41:46.802Z,97986.00
2022-08-29T22:44:59.853Z,97977.00
2022-08-29T22:47:02.211Z,97985.00
2022-08-29T22:49:33.154Z,97979.00
2022-08-29T22:52:02.132Z,97989.00
2022-08-29T22:54:34.842Z,97978.00
2022-08-29T22:57:15.093Z,97978.00
2022-08-29T22:59:43.791Z,97977.00
2022-08-29T23:02:12.657Z,97987.00
2022-08-29T23:04:40.495Z,97985.00
2022-08-29T23:07:08.877Z,97971.00
2022-08-29T23:09:42.236Z,97966.00
2022-08-29T23:12:12.021Z,97981.00
2022-08-29T23:14:42.156Z,97982.00
2022-08-29T23:17:09.751Z,97991.00
2022-08-29T23:19:37.423Z,97986.00
2022-08-29T23:22:09.958Z,97986.00
2022-08-29T23:24:39.235Z,97994.00
2022-08-29T23:27:08.435Z,97985.00
2022-08-29T23:29:36.992Z,97985.00
2022-08-29T23:32:09.147Z,97982.00
2022-08-29T23:34:36.096Z,97983.00
2022-08-29T23:37:03.136Z,97980.00
2022-08-29T23:39:30.045Z,97983.00
2022-08-29T23:41:57.056Z,97986.00
2022-08-29T23:44:23.948Z,97968.00
2022-08-29T23:46:50.962Z,97990.00
2022-08-29T23:49:17.797Z,97976.00
2022-08-29T23:51:44.754Z,97978.00
2022-08-29T23:54:11.680Z,97991.00
2022-08-29T23:56:38.755Z,97982.00
2022-08-29T23:59:05.788Z,97974.00
